Time;durP1;ratioP1;P1;durP2;ratioP2;P2;SDS_P1;SDS_P2;PMS_P1;PMS_P2;Temp;Humidity;BMP_temperature;BMP_pressure;BME280_temperature;BME280_humidity;BME280_pressure;Samples;Min_cycle;Max_cycle;Signal;HPM_P1;HPM_P2
2022/05/29 00:00:59;;;;;;;11.48;2.00;;;;;;;12.29;53.03;99821.81;5051570;28;20067;-61
2022/05/29 00:03:26;;;;;;;9.93;2.03;;;;;;;12.30;53.23;99818.22;5050649;28;20159;-63
2022/05/29 00:05:52;;;;;;;7.68;1.60;;;;;;;12.29;53.22;99810.41;5049708;28;20044;-61
2022/05/29 00:08:28;;;;;;;7.82;1.88;;;;;;;12.27;54.26;99825.50;5051670;28;20057;-62
2022/05/29 00:10:56;;;;;;;8.40;1.85;;;;;;;12.29;53.58;99807.78;5051457;28;20088;-62
2022/05/29 00:13:24;;;;;;;9.00;1.77;;;;;;;12.30;53.45;99814.75;5050318;28;20060;-62
2022/05/29 00:15:51;;;;;;;8.57;1.95;;;;;;;12.30;53.62;99812.94;5051870;28;20072;-65
2022/05/29 00:18:18;;;;;;;7.82;1.98;;;;;;;12.32;53.57;99805.78;5051569;28;20052;-61
2022/05/29 00:20:49;;;;;;;13.05;2.42;;;;;;;12.31;54.35;99812.00;5051400;28;20057;-62
2022/05/29 00:23:16;;;;;;;8.35;2.03;;;;;;;12.33;53.67;99811.88;5050190;28;20056;-61
2022/05/29 00:25:46;;;;;;;7.30;1.75;;;;;;;12.33;53.95;99817.16;5051230;28;20048;-65
2022/05/29 00:28:13;;;;;;;5.30;1.50;;;;;;;12.33;53.62;99807.47;5050347;28;20060;-62
2022/05/29 00:30:40;;;;;;;4.50;1.60;;;;;;;12.33;53.40;99807.47;5050060;28;20056;-64
2022/05/29 00:33:08;;;;;;;7.50;2.25;;;;;;;12.32;53.81;99807.56;5051391;28;20056;-62
2022/05/29 00:35:37;;;;;;;5.60;1.95;;;;;;;12.32;53.99;99803.16;5049960;28;20049;-63
2022/05/29 00:38:04;;;;;;;7.32;1.77;;;;;;;12.33;53.72;99796.91;5050060;28;20049;-62
2022/05/29 00:40:36;;;;;;;7.70;1.77;;;;;;;12.32;54.44;99794.38;5050912;28;20052;-62
2022/05/29 00:43:03;;;;;;;8.00;2.05;;;;;;;12.32;53.92;99786.44;5051372;28;20060;-64
2022/05/29 00:45:37;;;;;;;6.95;2.50;;;;;;;12.32;54.71;99792.59;5051280;28;20052;-62
2022/05/29 00:48:04;;;;;;;7.32;2.10;;;;;;;12.32;54.01;99782.03;5049736;28;20045;-62
2022/05/29 00:50:31;;;;;;;6.70;1.95;;;;;;;12.32;54.12;99784.66;5050792;28;20060;-61
2022/05/29 00:52:58;;;;;;;9.48;2.33;;;;;;;12.33;54.44;99783.72;5050849;28;20063;-62
2022/05/29 00:55:30;;;;;;;7.75;2.05;;;;;;;12.32;54.89;99784.66;5050964;28;20045;-62
2022/05/29 00:58:02;;;;;;;7.47;2.38;;;;;;;12.31;55.38;99787.41;5050940;28;20052;-62
2022/05/29 01:00:31;;;;;;;10.60;2.17;;;;;;;12.30;54.76;99783.91;5050580;28;20562;-61
2022/05/29 01:03:01;;;;;;;4.97;1.80;;;;;;;12.28;54.95;99775.25;5049630;28;20107;-61
2022/05/29 01:05:31;;;;;;;7.40;1.88;;;;;;;12.27;54.88;99776.19;5050574;28;20052;-61
2022/05/29 01:08:03;;;;;;;6.80;2.10;;;;;;;12.24;55.49;99774.59;5049674;28;20056;-62
2022/05/29 01:10:47;;;;;;;8.02;2.13;;;;;;;12.20;55.88;99770.47;5050515;28;20052;-61
2022/05/29 01:13:42;;;;;;;7.60;1.83;;;;;;;12.17;55.93;99768.03;5050615;28;20504;-63
2022/05/29 01:16:46;;;;;;;7.22;2.45;;;;;;;12.14;56.17;99765.56;5050946;28;20044;-62
2022/05/29 01:19:25;;;;;;;6.88;1.70;;;;;;;12.14;56.08;99764.75;5050283;28;20052;-62
2022/05/29 01:22:19;;;;;;;9.55;2.20;;;;;;;12.10;56.53;99762.28;5050526;28;20049;-62
2022/05/29 01:24:58;;;;;;;6.50;2.17;;;;;;;12.11;55.74;99760.47;5050816;28;20106;-63
2022/05/29 01:27:53;;;;;;;4.72;2.15;;;;;;;12.08;56.38;99755.41;5050084;28;20382;-62
2022/05/29 01:30:23;;;;;;;9.73;2.13;;;;;;;12.11;55.58;99755.19;5067905;28;20048;-61
2022/05/29 01:32:58;;;;;;;8.70;2.03;;;;;;;12.12;55.43;99759.56;5068467;28;20439;-63
2022/05/29 01:35:33;;;;;;;5.80;1.98;;;;;;;12.10;56.14;99757.00;5050592;28;20049;-61
2022/05/29 01:38:07;;;;;;;5.53;1.92;;;;;;;12.09;56.56;99763.25;5049160;28;20447;-63
2022/05/29 01:40:42;;;;;;;6.85;1.83;;;;;;;12.08;56.64;99753.59;5049151;28;20057;-64
2022/05/29 01:43:28;;;;;;;8.07;2.58;;;;;;;12.05;57.07;99753.81;5049295;28;20563;-63
2022/05/29 01:46:01;;;;;;;8.80;2.20;;;;;;;12.08;56.36;99745.69;5050465;28;20091;-61
2022/05/29 01:48:56;;;;;;;8.48;2.35;;;;;;;12.07;57.32;99749.28;5050348;28;20110;-61
2022/05/29 01:51:34;;;;;;;7.13;2.08;;;;;;;12.11;57.27;99749.91;5049939;28;20048;-62
2022/05/29 01:54:11;;;;;;;6.35;2.00;;;;;;;12.13;57.08;99740.13;5049155;28;20049;-61
2022/05/29 01:56:44;;;;;;;8.55;2.17;;;;;;;12.15;56.85;99745.31;5049114;28;20103;-62
2022/05/29 01:59:18;;;;;;;9.68;2.70;;;;;;;12.15;57.34;99740.03;5050247;28;20045;-62
2022/05/29 02:01:55;;;;;;;8.77;2.15;;;;;;;12.15;57.31;99743.50;5050208;28;20048;-63
2022/05/29 02:04:25;;;;;;;7.53;1.80;;;;;;;12.16;56.77;99728.53;5049080;28;20049;-61
2022/05/29 02:09:44;;;;;;;7.97;2.15;;;;;;;12.16;57.27;99725.88;5050188;28;20049;-65
2022/05/29 02:12:16;;;;;;;5.17;2.30;;;;;;;12.14;57.06;99715.44;5049967;28;20095;-64
2022/05/29 02:14:55;;;;;;;7.95;2.20;;;;;;;12.11;57.81;99721.75;5049110;28;20072;-61
2022/05/29 02:17:28;;;;;;;4.43;1.75;;;;;;;12.10;57.46;99720.06;5050122;28;20053;-62
2022/05/29 02:20:20;;;;;;;6.20;2.20;;;;;;;12.10;57.87;99716.56;5050191;28;20053;-62
2022/05/29 02:22:49;;;;;;;6.78;2.08;;;;;;;12.10;56.91;99717.44;5050011;28;20048;-61
2022/05/29 02:25:20;;;;;;;8.15;2.38;;;;;;;12.07;57.50;99712.34;5049986;28;20053;-62
2022/05/29 02:27:55;;;;;;;5.45;2.42;;;;;;;12.05;58.42;99714.25;5048894;28;20635;-62
2022/05/29 02:30:26;;;;;;;7.55;2.25;;;;;;;12.06;57.26;99715.94;5052770;28;20645;-61
2022/05/29 02:33:14;;;;;;;6.68;2.00;;;;;;;12.04;57.80;99709.84;5053682;28;20048;-61
2022/05/29 02:35:45;;;;;;;6.25;2.20;;;;;;;12.02;58.05;99711.75;5053770;28;20041;-61
2022/05/29 02:38:24;;;;;;;7.15;2.30;;;;;;;11.98;58.58;99700.56;5053777;28;20049;-64
2022/05/29 02:41:09;;;;;;;9.13;2.47;;;;;;;11.98;58.59;99702.34;5052408;28;20045;-61
2022/05/29 02:43:53;;;;;;;5.85;1.77;;;;;;;11.96;58.79;99706.91;5053892;28;20061;-61
2022/05/29 02:46:59;;;;;;;9.30;2.38;;;;;;;11.93;58.76;99702.63;5053933;28;20049;-62
2022/05/29 02:49:42;;;;;;;6.90;2.22;;;;;;;11.95;58.71;99705.19;5052287;28;20045;-61
2022/05/29 02:52:16;;;;;;;10.63;2.50;;;;;;;11.96;58.66;99704.25;5052284;28;20409;-62
2022/05/29 02:54:42;;;;;;;13.05;2.30;;;;;;;11.96;57.59;99704.25;5052538;28;20065;-63
2022/05/29 02:57:10;;;;;;;7.88;2.15;;;;;;;11.95;57.65;99691.97;5053473;28;20041;-61
2022/05/29 02:59:43;;;;;;;4.60;2.15;;;;;;;11.93;58.79;99699.16;5052238;28;20056;-61
2022/05/29 03:02:15;;;;;;;8.32;2.60;;;;;;;11.91;58.96;99687.84;5051778;28;20067;-61
2022/05/29 03:05:07;;;;;;;8.40;2.30;;;;;;;11.89;59.30;99687.13;5053415;28;20049;-61
2022/05/29 03:07:46;;;;;;;7.50;2.70;;;;;;;11.90;58.84;99684.38;5053243;28;20060;-63
2022/05/29 03:10:20;;;;;;;10.13;2.58;;;;;;;11.90;58.63;99688.81;5053136;28;20061;-63
2022/05/29 03:13:01;;;;;;;7.30;2.20;;;;;;;11.90;58.88;99683.53;5053242;28;20653;-60
2022/05/29 03:15:49;;;;;;;6.82;2.33;;;;;;;11.88;59.25;99685.44;5053540;28;20060;-64
2022/05/29 03:18:44;;;;;;;6.07;2.45;;;;;;;11.86;59.45;99670.53;5052851;28;20428;-61
2022/05/29 03:21:19;;;;;;;9.27;2.38;;;;;;;11.88;58.87;99672.25;5051805;28;20048;-63
2022/05/29 03:24:01;;;;;;;4.32;2.22;;;;;;;11.87;57.85;99663.47;5051964;28;20053;-61
2022/05/29 03:26:40;;;;;;;9.68;2.50;;;;;;;11.81;59.20;99675.25;5052793;28;20049;-62
2022/05/29 03:29:11;;;;;;;5.50;2.58;;;;;;;11.80;58.74;99672.72;5052770;28;20459;-61
2022/05/29 03:31:41;;;;;;;5.43;2.10;;;;;;;11.78;58.40;99664.88;5051230;28;20051;-62
2022/05/29 03:34:09;;;;;;;5.57;2.35;;;;;;;11.76;58.37;99668.56;5052918;28;20048;-60
2022/05/29 03:36:36;;;;;;;6.68;2.67;;;;;;;11.74;58.31;99668.69;5052620;28;20183;-62
2022/05/29 03:39:02;;;;;;;6.57;2.67;;;;;;;11.72;58.60;99668.78;5051495;28;20068;-61
2022/05/29 03:41:39;;;;;;;6.97;2.70;;;;;;;11.72;59.98;99673.22;5052341;28;20045;-64
2022/05/29 03:44:06;;;;;;;8.48;2.83;;;;;;;11.73;58.89;99670.47;5051724;28;20049;-62
2022/05/29 03:46:33;;;;;;;8.15;2.90;;;;;;;11.72;58.83;99665.28;5052615;28;20071;-63
2022/05/29 03:48:59;;;;;;;8.07;2.63;;;;;;;11.72;58.97;99665.28;5052585;28;20492;-62
2022/05/29 03:51:26;;;;;;;11.30;2.88;;;;;;;11.71;58.97;99671.53;5052298;28;20052;-64
2022/05/29 03:53:53;;;;;;;6.32;2.72;;;;;;;11.71;59.04;99666.25;5052385;28;20057;-61
2022/05/29 03:56:19;;;;;;;8.73;3.20;;;;;;;11.71;59.31;99661.78;5052267;28;20053;-62
2022/05/29 03:58:52;;;;;;;5.50;2.40;;;;;;;11.72;59.25;99667.94;5052257;28;20132;-62
2022/05/29 04:01:19;;;;;;;10.52;3.05;;;;;;;11.72;59.34;99663.50;5050813;28;20509;-61
2022/05/29 04:03:47;;;;;;;6.90;3.30;;;;;;;11.73;59.19;99659.06;5052373;28;20144;-63
2022/05/29 04:06:13;;;;;;;12.55;2.88;;;;;;;11.72;59.31;99660.03;5052128;28;20045;-62
2022/05/29 04:14:11;;;;;;;11.27;3.05;;;;;;;11.69;59.23;99668.13;5052199;28;20049;-62
2022/05/29 04:16:37;;;;;;;9.13;2.58;;;;;;;11.66;59.45;99663.06;5051968;28;20065;-62
2022/05/29 04:19:04;;;;;;;11.18;2.97;;;;;;;11.66;59.50;99663.06;5050677;28;20045;-62
2022/05/29 04:21:31;;;;;;;6.70;2.67;;;;;;;11.65;59.61;99658.69;5052017;28;20056;-61
2022/05/29 04:23:58;;;;;;;7.70;2.80;;;;;;;11.64;59.71;99660.50;5050813;28;20053;-65
2022/05/29 04:26:25;;;;;;;5.30;2.92;;;;;;;11.64;59.85;99652.59;5050663;28;20064;-61
2022/05/29 04:28:51;;;;;;;11.10;3.50;;;;;;;11.64;59.86;99654.38;5051734;28;20045;-62
2022/05/29 04:31:18;;;;;;;7.45;2.85;;;;;;;11.64;60.13;99652.59;5051621;28;20061;-64
2022/05/29 04:33:46;;;;;;;10.00;3.00;;;;;;;11.66;60.06;99655.16;5051709;28;20198;-60
2022/05/29 04:36:12;;;;;;;4.90;2.60;;;;;;;11.66;60.11;99647.25;5051707;28;20059;-63
2022/05/29 04:38:39;;;;;;;9.52;3.58;;;;;;;11.68;60.14;99640.06;5051803;28;20057;-62
2022/05/29 04:41:08;;;;;;;8.02;3.08;;;;;;;11.69;60.49;99641.75;5051568;28;20098;-61
2022/05/29 04:43:35;;;;;;;9.25;3.15;;;;;;;11.70;60.35;99640.81;5051534;28;20053;-61
2022/05/29 04:46:03;;;;;;;6.97;3.25;;;;;;;11.71;60.25;99642.50;5051441;28;20114;-61
2022/05/29 04:48:29;;;;;;;10.38;2.92;;;;;;;11.73;60.42;99645.88;5051660;28;20130;-62
2022/05/29 04:51:02;;;;;;;10.98;3.33;;;;;;;11.73;61.37;99646.75;5050150;28;20056;-61
2022/05/29 04:53:30;;;;;;;11.38;3.03;;;;;;;11.76;60.35;99650.13;5049702;28;20051;-63
2022/05/29 04:55:58;;;;;;;8.68;2.78;;;;;;;11.77;60.46;99646.56;5051350;28;20052;-64
2022/05/29 04:58:26;;;;;;;7.72;2.53;;;;;;;11.77;60.77;99646.56;5049995;28;20822;-62
2022/05/29 05:00:58;;;;;;;13.75;3.42;;;;;;;11.79;61.63;99652.56;5049693;28;20072;-63
2022/05/29 05:03:25;;;;;;;5.80;2.67;;;;;;;11.83;60.93;99644.38;5051321;28;20584;-64
2022/05/29 05:05:52;;;;;;;9.05;3.22;;;;;;;11.90;61.12;99643.97;5050033;28;20051;-61
2022/05/29 05:08:19;;;;;;;7.47;3.25;;;;;;;11.95;61.18;99649.78;5051145;28;20045;-63
2022/05/29 05:10:45;;;;;;;5.13;2.72;;;;;;;12.01;61.21;99638.84;5050910;28;20052;-63
2022/05/29 05:13:12;;;;;;;6.55;3.03;;;;;;;12.07;61.35;99641.09;5050893;28;20045;-63
2022/05/29 05:15:39;;;;;;;12.90;2.95;;;;;;;12.15;60.94;99642.41;5051240;28;20118;-63
2022/05/29 05:18:06;;;;;;;5.85;2.88;;;;;;;12.20;60.70;99642.94;5051205;28;20057;-62
2022/05/29 05:20:33;;;;;;;7.80;3.15;;;;;;;12.24;60.50;99647.94;5050890;28;20053;-62
2022/05/29 05:23:00;;;;;;;5.55;2.72;;;;;;;12.27;60.62;99644.25;5050892;28;20045;-62
2022/05/29 05:25:26;;;;;;;9.73;3.03;;;;;;;12.29;60.60;99642.34;5051082;28;20048;-63
2022/05/29 05:27:53;;;;;;;11.63;2.78;;;;;;;12.32;60.60;99643.91;5050663;28;20095;-61
2022/05/29 05:30:20;;;;;;;9.30;3.30;;;;;;;12.34;60.66;99634.94;5050652;28;20073;-61
2022/05/29 05:32:46;;;;;;;8.93;3.03;;;;;;;12.37;60.45;99633.91;5050815;28;20107;-63
2022/05/29 05:35:13;;;;;;;9.70;2.83;;;;;;;12.40;60.52;99643.44;5050723;28;20056;-63
2022/05/29 05:37:41;;;;;;;5.93;2.63;;;;;;;12.40;60.50;99638.16;5050827;28;20049;-63
2022/05/29 05:40:12;;;;;;;6.88;2.53;;;;;;;12.40;61.25;99638.16;5050354;28;20057;-64
2022/05/29 05:42:39;;;;;;;9.27;2.72;;;;;;;12.43;60.54;99637.94;5049523;28;20057;-61
2022/05/29 05:45:08;;;;;;;9.90;2.90;;;;;;;12.42;60.73;99641.53;5050840;28;20607;-62
2022/05/29 05:47:35;;;;;;;6.10;2.67;;;;;;;12.43;60.62;99636.16;5049325;28;20455;-62
2022/05/29 05:50:02;;;;;;;5.78;2.47;;;;;;;12.42;60.54;99634.47;5050505;28;20459;-61
2022/05/29 05:52:28;;;;;;;9.65;3.10;;;;;;;12.43;60.56;99636.16;5049118;28;20061;-62
2022/05/29 05:54:55;;;;;;;5.90;2.63;;;;;;;12.43;60.47;99632.66;5050239;28;20060;-62
2022/05/29 05:57:22;;;;;;;6.82;2.85;;;;;;;12.42;60.38;99631.81;5050647;28;20048;-64
2022/05/29 05:59:48;;;;;;;4.25;2.33;;;;;;;12.42;60.52;99633.59;5049280;28;20072;-63
2022/05/29 06:02:15;;;;;;;6.35;2.80;;;;;;;12.41;60.61;99631.91;5050181;28;20049;-61
2022/05/29 06:04:43;;;;;;;9.60;2.97;;;;;;;12.40;61.00;99631.06;5050813;28;20485;-63
2022/05/29 06:07:10;;;;;;;7.80;3.38;;;;;;;12.41;60.81;99637.19;5054586;28;20045;-61
2022/05/29 06:09:37;;;;;;;10.93;3.47;;;;;;;12.44;60.79;99647.53;5054315;28;20045;-62
2022/05/29 06:12:06;;;;;;;9.63;2.75;;;;;;;12.43;60.81;99637.94;5053150;28;20071;-63
2022/05/29 06:14:34;;;;;;;7.38;2.83;;;;;;;12.43;60.86;99636.16;5054483;28;20072;-62
2022/05/29 06:17:02;;;;;;;7.88;2.85;;;;;;;12.43;60.88;99638.78;5053321;28;20059;-61
2022/05/29 06:19:29;;;;;;;8.25;3.10;;;;;;;12.45;60.91;99646.59;5052961;28;20049;-63
2022/05/29 06:21:56;;;;;;;9.60;2.60;;;;;;;12.45;61.09;99643.97;5054119;28;20052;-61
2022/05/29 06:24:22;;;;;;;6.55;2.75;;;;;;;12.46;61.12;99640.38;5054122;28;20582;-62
2022/05/29 06:26:49;;;;;;;6.72;2.75;;;;;;;12.48;61.29;99643.75;5054099;28;20551;-63
2022/05/29 06:29:15;;;;;;;5.72;2.65;;;;;;;12.50;61.31;99644.50;5054094;28;20060;-61
2022/05/29 06:31:42;;;;;;;7.40;2.28;;;;;;;12.53;61.42;99638.16;5053938;28;20053;-61
2022/05/29 06:34:09;;;;;;;7.63;2.90;;;;;;;12.56;61.40;99640.59;5054189;28;20056;-64
2022/05/29 06:36:35;;;;;;;6.55;2.83;;;;;;;12.61;61.69;99646.41;5053651;28;20087;-62
2022/05/29 06:39:02;;;;;;;6.35;2.72;;;;;;;12.67;62.08;99639.88;5053086;28;20045;-61
2022/05/29 06:41:29;;;;;;;7.60;2.85;;;;;;;12.73;62.11;99645.59;5053586;28;20159;-63
2022/05/29 06:43:55;;;;;;;7.25;3.10;;;;;;;12.81;62.54;99647.69;5052607;28;20056;-64
2022/05/29 06:46:22;;;;;;;6.85;2.70;;;;;;;12.90;62.58;99644.44;5053756;28;20106;-62
2022/05/29 06:48:49;;;;;;;6.90;2.42;;;;;;;13.00;62.52;99634.06;5053737;28;20052;-64
2022/05/29 06:51:22;;;;;;;6.65;2.55;;;;;;;13.09;62.83;99645.78;5052250;28;20092;-63
2022/05/29 06:53:54;;;;;;;6.55;2.88;;;;;;;13.19;62.36;99650.47;5053840;28;20055;-61
2022/05/29 06:56:22;;;;;;;7.37;2.70;;;;;;;13.27;61.60;99646.31;5053756;28;20534;-66
2022/05/29 06:58:49;;;;;;;6.32;2.88;;;;;;;13.32;61.38;99651.28;5052384;28;20479;-61
2022/05/29 07:06:59;;;;;;;7.97;2.28;;;;;;;13.43;61.25;99647.88;5053565;28;20044;-61
2022/05/29 07:09:46;;;;;;;6.07;2.38;;;;;;;13.45;62.11;99647.78;5053434;28;20060;-61
2022/05/29 07:12:22;;;;;;;7.40;2.80;;;;;;;13.55;61.93;99651.47;5052873;28;20057;-62
2022/05/29 07:14:55;;;;;;;9.20;2.97;;;;;;;13.61;61.73;99651.03;5053209;28;20053;-61
2022/05/29 07:17:26;;;;;;;7.70;2.53;;;;;;;13.66;61.23;99646.28;5052205;28;20044;-63
2022/05/29 07:19:53;;;;;;;9.85;2.85;;;;;;;13.73;61.15;99648.47;5053150;28;20049;-62
2022/05/29 07:22:20;;;;;;;9.45;2.65;;;;;;;13.77;61.13;99648.16;5051670;28;20102;-64
2022/05/29 07:24:47;;;;;;;6.00;2.05;;;;;;;13.81;60.90;99646.97;5053730;28;20064;-60
2022/05/29 07:27:14;;;;;;;9.88;2.35;;;;;;;13.84;60.81;99634.47;5053203;28;20067;-62
2022/05/29 07:29:42;;;;;;;9.00;2.40;;;;;;;13.86;60.33;99643.97;5052922;28;20084;-61
2022/05/29 07:32:11;;;;;;;9.80;2.85;;;;;;;13.85;60.09;99642.28;5065762;28;20052;-62
2022/05/29 07:34:38;;;;;;;8.82;2.83;;;;;;;13.83;59.97;99638.91;5071475;28;20048;-62
2022/05/29 07:37:08;;;;;;;11.35;2.92;;;;;;;13.79;60.52;99638.28;5052126;28;20061;-61
2022/05/29 07:39:53;;;;;;;7.05;2.38;;;;;;;13.72;60.54;99642.31;5052856;28;20143;-61
2022/05/29 07:45:08;;;;;;;8.68;2.80;;;;;;;13.67;60.29;99642.66;5052651;28;20053;-61
2022/05/29 07:47:37;;;;;;;10.13;2.55;;;;;;;13.63;60.11;99640.34;5051239;28;20053;-62
2022/05/29 07:50:05;;;;;;;25.10;3.72;;;;;;;13.59;60.37;99644.16;5052904;28;20061;-65
2022/05/29 07:52:32;;;;;;;7.55;2.72;;;;;;;13.55;60.48;99636.47;5051457;28;20053;-61
2022/05/29 07:54:59;;;;;;;8.80;2.63;;;;;;;13.54;60.52;99634.75;5052298;28;20107;-61
2022/05/29 07:57:26;;;;;;;9.70;2.70;;;;;;;13.55;60.62;99635.59;5052320;28;20061;-62
2022/05/29 07:59:53;;;;;;;11.35;2.80;;;;;;;13.55;60.62;99635.59;5050826;28;20049;-62
2022/05/29 08:02:20;;;;;;;6.07;2.65;;;;;;;13.58;60.58;99638.03;5052300;28;20638;-61
2022/05/29 08:04:47;;;;;;;7.75;2.25;;;;;;;13.59;61.18;99629.16;5052568;28;20140;-61
2022/05/29 08:07:17;;;;;;;7.45;2.40;;;;;;;13.62;61.38;99634.22;5052376;28;20095;-62
2022/05/29 08:09:44;;;;;;;6.15;2.67;;;;;;;13.68;61.25;99625.84;5051120;28;20052;-61
2022/05/29 08:12:11;;;;;;;7.25;2.10;;;;;;;13.77;61.76;99628.78;5051936;28;20544;-62
2022/05/29 08:14:37;;;;;;;6.85;2.25;;;;;;;13.86;61.74;99625.44;5052035;28;20064;-62
2022/05/29 08:17:04;;;;;;;5.70;2.30;;;;;;;13.97;61.92;99629.97;5052156;28;20110;-61
2022/05/29 08:19:33;;;;;;;11.57;2.50;;;;;;;14.10;61.81;99629.06;5052036;28;20049;-62
2022/05/29 08:22:00;;;;;;;6.10;2.50;;;;;;;14.23;61.75;99629.84;5051642;28;20396;-61
2022/05/29 08:33:03;;;;;;;8.43;2.53;;;;;;;14.91;60.61;99629.19;5051539;28;20056;-61
2022/05/29 08:35:31;;;;;;;9.63;2.80;;;;;;;15.01;60.30;99629.31;5051449;28;20087;-62
2022/05/29 08:37:58;;;;;;;6.10;2.17;;;;;;;15.13;59.89;99618.72;5051737;28;20057;-64
2022/05/29 08:40:26;;;;;;;11.75;2.22;;;;;;;15.22;59.60;99623.31;5051366;28;20041;-61
2022/05/29 08:42:53;;;;;;;7.30;2.03;;;;;;;15.28;58.86;99624.63;5050076;28;20057;-63
2022/05/29 08:45:20;;;;;;;9.30;2.67;;;;;;;15.31;58.43;99619.91;5051246;28;20049;-61
2022/05/29 08:47:49;;;;;;;7.95;2.03;;;;;;;15.34;58.28;99629.44;5051384;28;20049;-62
2022/05/29 08:50:35;;;;;;;9.10;1.95;;;;;;;15.31;58.10;99624.38;5050042;28;20059;-61
2022/05/29 08:53:15;;;;;;;4.68;1.65;;;;;;;15.35;57.86;99625.81;5050149;28;20049;-62
2022/05/29 08:56:01;;;;;;;8.23;1.83;;;;;;;15.34;58.38;99630.28;5051188;28;20056;-61
2022/05/29 08:58:39;;;;;;;6.03;1.90;;;;;;;15.42;58.55;99619.06;5050115;28;20053;-61
2022/05/29 09:01:38;;;;;;;7.13;1.70;;;;;;;15.48;58.46;99621.22;5050997;28;20107;-61
2022/05/29 09:04:19;;;;;;;7.65;2.08;;;;;;;15.54;58.63;99625.19;5037958;28;20139;-62
2022/05/29 09:06:51;;;;;;;8.48;1.92;;;;;;;15.64;58.79;99622.66;5049594;28;20056;-61
2022/05/29 09:09:42;;;;;;;7.22;2.00;;;;;;;15.71;58.86;99615.91;5051252;28;20049;-61
2022/05/29 09:12:16;;;;;;;6.30;1.70;;;;;;;15.83;58.68;99614.03;5050840;28;20053;-62
2022/05/29 09:14:55;;;;;;;6.97;2.13;;;;;;;15.94;57.15;99613.19;5049702;28;20571;-61
2022/05/29 09:17:31;;;;;;;5.45;1.95;;;;;;;16.04;57.10;99609.78;5049961;28;20052;-61
2022/05/29 09:20:38;;;;;;;6.70;1.55;;;;;;;16.12;56.21;99610.00;5050872;28;20045;-61
2022/05/29 09:23:08;;;;;;;9.25;1.90;;;;;;;16.24;56.37;99611.63;4969351;28;20071;-62
2022/05/29 09:25:36;;;;;;;8.25;1.95;;;;;;;16.35;56.42;99607.22;5035796;28;20052;-61
2022/05/29 09:28:11;;;;;;;7.75;2.20;;;;;;;16.43;55.84;99612.72;5050374;28;20377;-62
2022/05/29 09:30:38;;;;;;;6.43;2.10;;;;;;;16.53;55.83;99613.63;5050272;28;20049;-62
2022/05/29 09:33:13;;;;;;;6.53;2.10;;;;;;;16.60;55.19;99610.47;5050144;28;20139;-64
2022/05/29 09:36:07;;;;;;;7.22;2.00;;;;;;;16.61;54.11;99614.81;5049081;28;20489;-62
2022/05/29 09:38:41;;;;;;;7.95;2.15;;;;;;;16.64;53.96;99612.72;5048936;28;20094;-61
2022/05/29 09:41:29;;;;;;;5.60;1.60;;;;;;;16.62;54.05;99617.34;5048745;28;20049;-61
2022/05/29 09:44:04;;;;;;;6.93;1.70;;;;;;;16.53;53.60;99615.47;5050212;28;20053;-62
2022/05/29 09:46:33;;;;;;;4.70;1.58;;;;;;;16.49;53.80;99616.69;5050390;28;20596;-63
2022/05/29 09:51:55;;;;;;;7.13;1.80;;;;;;;16.33;53.87;99614.50;5049825;28;20053;-62
2022/05/29 09:54:29;;;;;;;9.30;1.92;;;;;;;16.24;53.79;99622.25;5050118;28;20060;-63
2022/05/29 09:57:25;;;;;;;8.93;2.03;;;;;;;16.08;53.75;99629.78;5049083;28;20402;-63
2022/05/29 10:00:14;;;;;;;8.20;2.03;;;;;;;15.90;54.01;99630.31;5049982;28;20049;-62
2022/05/29 10:02:47;;;;;;;8.82;2.15;;;;;;;15.77;54.00;99636.59;5050029;28;20708;-63
2022/05/29 10:05:28;;;;;;;7.32;2.15;;;;;;;15.55;54.68;99636.66;5050376;28;20063;-63
2022/05/29 10:07:58;;;;;;;7.40;1.95;;;;;;;15.41;55.05;99629.78;5048766;28;20616;-61
2022/05/29 10:10:25;;;;;;;6.82;2.03;;;;;;;15.27;55.54;99628.22;5048450;28;20052;-61
2022/05/29 10:12:55;;;;;;;8.00;2.00;;;;;;;15.14;56.26;99633.66;5049875;28;20492;-63
2022/05/29 10:15:24;;;;;;;5.13;1.65;;;;;;;15.01;56.81;99626.66;5049754;28;20049;-64
2022/05/29 10:17:59;;;;;;;5.38;1.80;;;;;;;14.94;57.17;99633.41;5049692;28;20508;-61
2022/05/29 10:20:31;;;;;;;5.50;1.65;;;;;;;14.89;56.68;99628.47;5049936;28;20053;-61
2022/05/29 10:23:02;;;;;;;9.20;2.20;;;;;;;14.82;56.64;99621.94;5049826;28;20398;-62
2022/05/29 10:25:33;;;;;;;7.63;1.92;;;;;;;14.77;56.87;99624.13;5048781;28;20068;-61
2022/05/29 10:28:09;;;;;;;5.30;1.45;;;;;;;14.73;57.39;99616.38;5048407;28;20045;-64
2022/05/29 10:30:47;;;;;;;15.70;1.98;;;;;;;14.73;57.91;99615.53;5048398;28;20079;-61
2022/05/29 10:33:23;;;;;;;4.35;1.60;;;;;;;14.75;58.76;99615.41;5048604;28;20048;-63
2022/05/29 10:35:53;;;;;;;5.80;1.33;;;;;;;14.82;57.99;99604.25;5048502;28;20049;-64
2022/05/29 10:38:22;;;;;;;8.48;1.50;;;;;;;14.88;58.13;99618.00;5048431;28;20139;-61
2022/05/29 10:40:55;;;;;;;7.10;1.60;;;;;;;14.95;59.03;99605.97;5049426;28;20053;-61
2022/05/29 10:43:36;;;;;;;6.88;1.90;;;;;;;15.04;59.49;99612.31;5049541;28;20520;-62
2022/05/29 10:46:16;;;;;;;8.02;1.60;;;;;;;15.19;59.25;99616.44;5049804;28;20099;-61
2022/05/29 10:48:58;;;;;;;5.53;1.40;;;;;;;15.35;59.14;99612.56;5048281;28;20045;-62
2022/05/29 10:51:37;;;;;;;7.10;1.70;;;;;;;15.52;59.02;99610.38;5050928;28;20456;-61
2022/05/29 10:54:32;;;;;;;6.65;1.95;;;;;;;15.67;58.26;99608.28;5053543;28;20049;-61
2022/05/29 10:57:08;;;;;;;4.75;1.70;;;;;;;15.86;58.57;99607.63;5051829;28;20056;-61
2022/05/29 10:59:43;;;;;;;7.40;1.75;;;;;;;15.99;57.99;99605.69;5053314;28;20049;-64
2022/05/29 11:03:21;;;;;;;9.63;1.90;;;;;;;16.12;57.53;99605.50;5053243;28;20067;-62
2022/05/29 11:06:42;;;;;;;8.10;1.65;;;;;;;16.24;56.80;99610.78;4971771;28;20053;-62
2022/05/29 11:09:53;;;;;;;6.32;2.05;;;;;;;16.26;55.69;99608.84;4900930;28;20053;-64
2022/05/29 11:13:07;;;;;;;4.93;1.60;;;;;;;16.22;55.29;99604.75;4991020;28;20078;-61
2022/05/29 11:15:52;;;;;;;5.68;1.65;;;;;;;16.13;54.84;99606.34;5053068;28;20060;-63
2022/05/29 11:18:37;;;;;;;6.15;1.95;;;;;;;16.11;54.45;99601.16;5052901;28;20053;-63
2022/05/29 11:21:50;;;;;;;4.57;1.30;;;;;;;15.96;55.08;99599.81;5052585;28;20064;-62
2022/05/29 11:24:54;;;;;;;5.93;1.27;;;;;;;15.90;54.84;99607.25;5028135;28;20064;-64
2022/05/29 11:27:46;;;;;;;6.50;1.77;;;;;;;15.85;54.87;99595.34;5052826;28;20138;-63
2022/05/29 11:30:21;;;;;;;4.63;1.48;;;;;;;15.85;54.64;99592.69;5051406;28;20500;-62
2022/05/29 11:33:18;;;;;;;6.28;1.48;;;;;;;15.83;54.86;99590.16;5052799;28;20053;-63
2022/05/29 11:36:26;;;;;;;4.70;1.20;;;;;;;15.93;55.94;99590.25;5041972;28;20077;-61
2022/05/29 11:39:07;;;;;;;5.22;1.20;;;;;;;16.12;56.80;99581.59;5013093;28;20060;-62
2022/05/29 11:41:56;;;;;;;4.43;1.52;;;;;;;16.36;57.21;99574.38;5052401;28;20489;-61
2022/05/29 11:44:39;;;;;;;5.50;1.33;;;;;;;16.70;57.58;99568.00;5052371;28;20053;-62
2022/05/29 11:53:38;;;;;;;4.90;1.00;;;;;;;17.76;54.01;99569.47;5052091;28;20056;-61
2022/05/29 11:56:19;;;;;;;3.33;1.10;;;;;;;17.96;53.54;99562.31;5052386;28;20390;-61
2022/05/29 11:58:56;;;;;;;4.28;0.90;;;;;;;18.12;53.23;99564.44;5052212;28;20126;-61
2022/05/29 12:01:40;;;;;;;3.40;1.00;;;;;;;18.25;53.24;99563.31;5051052;28;20072;-62
2022/05/29 12:04:16;;;;;;;3.63;1.13;;;;;;;18.40;52.21;99558.38;5051855;28;20402;-61
2022/05/29 12:06:52;;;;;;;3.22;1.02;;;;;;;18.50;52.24;99556.53;5050896;28;20105;-61
2022/05/29 12:09:28;;;;;;;4.78;1.25;;;;;;;18.57;50.95;99562.13;5050765;28;20053;-61
2022/05/29 12:12:00;;;;;;;6.72;1.20;;;;;;;18.62;52.06;99555.38;5051558;28;20052;-63
2022/05/29 12:14:41;;;;;;;3.45;1.20;;;;;;;18.61;51.57;99559.03;5052029;28;20064;-62
2022/05/29 12:17:15;;;;;;;4.72;1.50;;;;;;;18.66;51.29;99563.94;5051987;28;20049;-61
2022/05/29 12:19:47;;;;;;;4.00;1.10;;;;;;;18.69;51.13;99557.47;5050399;28;20500;-61
2022/05/29 12:22:16;;;;;;;4.45;1.42;;;;;;;18.72;51.38;99550.00;5050384;28;20102;-62
2022/05/29 12:24:47;;;;;;;4.03;1.10;;;;;;;18.79;51.16;99554.75;5050327;28;20056;-63
2022/05/29 12:27:22;;;;;;;4.95;1.33;;;;;;;18.85;50.28;99541.69;5051759;28;20049;-61
2022/05/29 12:30:06;;;;;;;2.03;0.85;;;;;;;18.92;50.23;99546.44;5051843;28;20045;-63
2022/05/29 12:32:35;;;;;;;3.55;1.38;;;;;;;19.02;50.77;99545.41;5051320;28;20099;-63
2022/05/29 12:35:07;;;;;;;2.00;0.75;;;;;;;19.10;50.02;99547.34;5049782;28;20057;-61
2022/05/29 12:37:59;;;;;;;7.07;0.80;;;;;;;19.16;48.08;99542.41;5050191;28;20413;-61